Time;durP1;ratioP1;P1;durP2;ratioP2;P2;SDS_P1;SDS_P2;PMS_P1;PMS_P2;Temp;Humidity;BMP_temperature;BMP_pressure;BME280_temperature;BME280_humidity;BME280_pressure;Samples;Min_cycle;Max_cycle;Signal;HPM_P1;HPM_P2
2021/08/03 00:00:02;;;;;;;13.15;5.82;;;16.10;78.60;;;;;;5009464;28;20113;-89
2021/08/03 00:02:30;;;;;;;11.38;6.95;;;16.00;78.70;;;;;;5005313;28;20066;-88
2021/08/03 00:04:58;;;;;;;10.73;6.15;;;16.00;78.70;;;;;;4992832;28;20054;-90
2021/08/03 00:07:27;;;;;;;11.02;6.50;;;16.00;78.70;;;;;;4992225;28;20050;-89
2021/08/03 00:09:56;;;;;;;7.45;5.95;;;16.10;78.70;;;;;;5004620;28;20513;-88
2021/08/03 00:12:24;;;;;;;11.63;6.68;;;16.10;78.80;;;;;;5001841;28;20054;-88
2021/08/03 00:14:53;;;;;;;7.75;5.72;;;16.10;78.70;;;;;;5007741;28;20069;-89
2021/08/03 00:17:25;;;;;;;13.13;5.88;;;16.10;78.70;;;;;;5008317;28;20068;-89
2021/08/03 00:19:53;;;;;;;10.45;5.22;;;16.10;78.70;;;;;;4993271;28;20054;-89
2021/08/03 00:22:24;;;;;;;11.32;6.38;;;16.10;78.60;;;;;;4992312;28;20652;-88
2021/08/03 00:24:51;;;;;;;17.42;6.30;;;16.10;78.60;;;;;;4992880;28;20050;-88
2021/08/03 00:27:18;;;;;;;6.47;5.18;;;16.10;78.60;;;;;;5008244;28;20112;-88
2021/08/03 00:29:45;;;;;;;16.85;6.13;;;16.10;78.60;;;;;;4993069;28;20072;-88
2021/08/03 00:32:12;;;;;;;8.70;5.40;;;16.10;78.60;;;;;;5007467;28;20050;-88
2021/08/03 00:34:39;;;;;;;6.32;4.53;;;16.10;78.70;;;;;;5008079;28;20057;-89
2021/08/03 00:37:08;;;;;;;9.70;5.32;;;16.00;78.70;;;;;;4991571;28;20054;-89
2021/08/03 00:39:37;;;;;;;9.30;5.22;;;16.00;78.70;;;;;;4991306;28;20055;-89
2021/08/03 00:42:05;;;;;;;8.75;5.10;;;16.00;78.70;;;;;;4985699;28;20055;-88
2021/08/03 00:44:39;;;;;;;11.75;4.10;;;16.00;78.60;;;;;;4979721;28;20050;-87
2021/08/03 00:47:06;;;;;;;8.98;4.38;;;16.00;78.60;;;;;;4992773;28;20100;-88
2021/08/03 00:49:33;;;;;;;15.98;5.13;;;16.00;78.60;;;;;;5007788;28;20104;-88
2021/08/03 00:52:01;;;;;;;12.75;5.05;;;16.00;78.60;;;;;;5009773;28;20046;-88
2021/08/03 00:54:28;;;;;;;7.63;4.88;;;16.00;78.60;;;;;;4995830;28;20515;-89
2021/08/03 00:56:54;;;;;;;6.40;4.13;;;16.00;78.60;;;;;;4995098;28;20054;-88
2021/08/03 00:59:21;;;;;;;10.93;4.90;;;16.00;78.60;;;;;;4995971;28;20050;-88
2021/08/03 01:01:48;;;;;;;6.75;4.60;;;16.00;78.60;;;;;;4996217;28;20093;-88
2021/08/03 01:04:17;;;;;;;10.48;4.70;;;16.00;78.60;;;;;;4996166;28;20130;-89
2021/08/03 01:07:01;;;;;;;11.00;4.25;;;16.00;78.70;;;;;;4995499;28;20507;-87
2021/08/03 01:09:44;;;;;;;10.85;4.55;;;16.00;78.60;;;;;;4996012;28;20517;-87
2021/08/03 01:12:40;;;;;;;6.47;4.13;;;16.00;78.70;;;;;;4995942;28;20046;-88
2021/08/03 01:15:16;;;;;;;11.75;3.92;;;15.90;78.70;;;;;;5011223;28;20057;-89
2021/08/03 01:18:14;;;;;;;7.95;3.83;;;15.90;78.70;;;;;;4995349;28;20782;-89
2021/08/03 01:21:11;;;;;;;7.55;3.33;;;15.90;78.70;;;;;;4996195;28;20057;-88
2021/08/03 01:23:57;;;;;;;8.02;3.80;;;15.90;78.80;;;;;;4995334;28;20504;-90
2021/08/03 01:26:46;;;;;;;6.30;4.03;;;15.90;78.80;;;;;;4975896;28;20062;-90
2021/08/03 01:29:18;;;;;;;7.75;3.72;;;15.90;78.80;;;;;;4975998;28;20106;-90
2021/08/03 01:31:54;;;;;;;12.88;3.42;;;15.90;78.90;;;;;;4976487;28;20536;-91
2021/08/03 01:34:24;;;;;;;5.47;3.35;;;15.90;78.90;;;;;;4995495;28;20054;-93
2021/08/03 01:36:55;;;;;;;9.57;3.95;;;15.90;78.90;;;;;;4996564;28;20061;-93
2021/08/03 01:39:44;;;;;;;12.15;4.43;;;15.90;79.00;;;;;;4995954;28;20409;-92
2021/08/03 01:42:12;;;;;;;9.40;4.18;;;15.90;79.00;;;;;;4995796;28;20053;-94
2021/08/03 01:44:41;;;;;;;11.02;4.90;;;15.90;79.10;;;;;;4996128;28;20050;-93
2021/08/03 01:47:08;;;;;;;7.70;4.82;;;15.90;79.10;;;;;;4995269;28;20523;-93
2021/08/03 01:49:39;;;;;;;14.00;5.50;;;15.90;79.20;;;;;;4976345;28;20047;-93
2021/08/03 01:52:08;;;;;;;6.55;3.97;;;15.90;79.20;;;;;;4994718;28;20058;-92
2021/08/03 01:54:35;;;;;;;10.75;5.50;;;15.90;79.30;;;;;;5011673;28;20065;-92
2021/08/03 01:57:04;;;;;;;9.50;4.65;;;15.90;79.40;;;;;;5012012;28;20108;-92
2021/08/03 01:59:32;;;;;;;8.75;4.45;;;15.90;79.40;;;;;;5011867;28;20420;-95
2021/08/03 02:02:04;;;;;;;7.38;5.00;;;15.90;79.40;;;;;;4995964;28;20054;-93
2021/08/03 02:04:33;;;;;;;9.38;4.50;;;15.90;79.40;;;;;;4995496;28;20065;-93
2021/08/03 02:07:00;;;;;;;7.10;4.13;;;15.90;79.40;;;;;;4995438;28;20409;-91
2021/08/03 02:09:29;;;;;;;9.45;4.97;;;15.90;79.30;;;;;;4995346;28;20066;-92
2021/08/03 02:11:58;;;;;;;13.18;5.63;;;15.90;79.20;;;;;;4995303;28;20496;-93
2021/08/03 02:14:29;;;;;;;8.73;5.07;;;15.90;79.20;;;;;;4995116;28;20065;-93
2021/08/03 02:16:57;;;;;;;10.35;5.05;;;15.90;79.30;;;;;;4995474;28;20125;-93
2021/08/03 02:19:24;;;;;;;12.00;5.78;;;15.90;79.30;;;;;;4994849;28;20055;-93
2021/08/03 02:21:51;;;;;;;13.00;4.95;;;15.80;79.40;;;;;;4995533;28;20046;-93
2021/08/03 02:24:18;;;;;;;9.25;4.82;;;15.80;79.50;;;;;;4995343;28;20058;-94
2021/08/03 02:26:46;;;;;;;8.50;4.55;;;15.80;79.60;;;;;;4995238;28;20057;-93
2021/08/03 02:29:13;;;;;;;15.40;5.63;;;15.80;79.60;;;;;;4995248;28;20050;-93
2021/08/03 02:31:44;;;;;;;8.25;5.60;;;15.70;79.70;;;;;;4994648;28;20054;-90
2021/08/03 02:34:24;;;;;;;12.68;5.40;;;15.70;79.70;;;;;;4993768;28;20058;-91
2021/08/03 02:36:58;;;;;;;13.18;4.90;;;15.70;79.60;;;;;;4994615;28;20057;-93
2021/08/03 02:39:26;;;;;;;6.18;4.20;;;15.60;79.70;;;;;;4994362;28;20054;-90
2021/08/03 02:41:55;;;;;;;11.05;4.78;;;15.60;79.70;;;;;;5010620;28;20062;-88
2021/08/03 02:44:23;;;;;;;10.77;5.00;;;15.60;79.80;;;;;;5010264;28;20050;-89
2021/08/03 02:46:53;;;;;;;8.85;4.32;;;15.60;79.80;;;;;;4993816;28;20054;-89
2021/08/03 02:49:35;;;;;;;11.98;4.95;;;15.60;79.90;;;;;;4975000;28;20046;-89
2021/08/03 02:52:05;;;;;;;9.48;5.13;;;15.60;80.00;;;;;;4992751;28;20058;-88
2021/08/03 02:54:35;;;;;;;8.10;4.50;;;15.60;79.80;;;;;;4987324;28;20109;-91
2021/08/03 02:57:06;;;;;;;13.25;5.38;;;15.50;79.80;;;;;;4985322;28;20054;-90
2021/08/03 02:59:38;;;;;;;12.13;4.53;;;15.50;79.80;;;;;;4993643;28;20500;-91
2021/08/03 03:02:09;;;;;;;8.55;4.70;;;15.50;79.70;;;;;;4994032;28;20452;-89
2021/08/03 03:04:41;;;;;;;10.55;4.47;;;15.50;79.70;;;;;;4993710;28;20064;-90
2021/08/03 03:07:18;;;;;;;8.15;4.45;;;15.50;79.80;;;;;;4993682;28;20060;-90
2021/08/03 03:09:46;;;;;;;10.35;4.95;;;15.50;79.80;;;;;;4993862;28;20116;-90
2021/08/03 03:12:14;;;;;;;10.23;5.22;;;15.50;79.70;;;;;;4994015;28;20050;-91
2021/08/03 03:14:44;;;;;;;13.27;5.80;;;15.50;79.70;;;;;;4993152;28;20054;-90
2021/08/03 03:17:12;;;;;;;9.75;5.05;;;15.40;79.70;;;;;;4993076;28;20060;-89
2021/08/03 03:19:41;;;;;;;8.82;5.47;;;15.50;79.70;;;;;;4993343;28;20061;-89
2021/08/03 03:22:09;;;;;;;9.85;5.93;;;15.40;79.70;;;;;;4992935;28;20493;-89
2021/08/03 03:24:38;;;;;;;9.88;5.50;;;15.50;79.60;;;;;;4992807;28;20065;-88
2021/08/03 03:27:05;;;;;;;8.63;4.80;;;15.40;79.60;;;;;;4993049;28;20109;-88
2021/08/03 03:29:37;;;;;;;12.00;4.78;;;15.40;79.60;;;;;;4992435;28;20046;-87
2021/08/03 03:32:05;;;;;;;9.35;6.13;;;15.40;79.60;;;;;;4992328;28;20054;-88
2021/08/03 03:34:33;;;;;;;12.20;6.68;;;15.40;79.60;;;;;;4993869;28;20046;-88
2021/08/03 03:37:01;;;;;;;12.40;5.90;;;15.40;79.60;;;;;;4993505;28;20050;-89
2021/08/03 03:39:29;;;;;;;8.90;5.72;;;15.40;79.60;;;;;;4993558;28;20054;-87
2021/08/03 03:42:01;;;;;;;10.10;6.10;;;15.40;79.70;;;;;;4991890;28;20097;-87
2021/08/03 03:44:29;;;;;;;9.85;5.15;;;15.40;79.70;;;;;;4992080;28;20105;-87
2021/08/03 03:47:10;;;;;;;17.52;5.63;;;15.40;79.70;;;;;;4992586;28;20058;-87
2021/08/03 03:49:41;;;;;;;14.30;5.95;;;15.40;79.70;;;;;;4973130;28;20090;-87
2021/08/03 03:52:09;;;;;;;8.82;5.78;;;15.40;79.70;;;;;;4981430;28;20054;-89
2021/08/03 03:54:40;;;;;;;9.77;4.88;;;15.40;79.70;;;;;;4989183;28;20471;-88
2021/08/03 03:57:10;;;;;;;10.63;5.78;;;15.40;79.70;;;;;;4993156;28;20042;-88
2021/08/03 03:59:42;;;;;;;13.55;6.70;;;15.40;79.70;;;;;;4993028;28;20046;-88
2021/08/03 04:02:13;;;;;;;12.70;6.55;;;15.40;79.70;;;;;;4976586;28;20042;-87
2021/08/03 04:04:42;;;;;;;11.45;5.18;;;15.40;79.60;;;;;;4993037;28;20056;-88
2021/08/03 04:07:10;;;;;;;13.73;7.13;;;15.30;79.50;;;;;;4993247;28;20464;-88
2021/08/03 04:09:38;;;;;;;11.45;6.32;;;15.30;79.60;;;;;;4993170;28;20050;-87
2021/08/03 04:12:05;;;;;;;11.35;6.50;;;15.30;79.60;;;;;;4991443;28;20467;-87
2021/08/03 04:14:34;;;;;;;9.70;6.60;;;15.30;79.60;;;;;;4991875;28;20046;-87
2021/08/03 04:17:05;;;;;;;12.48;6.43;;;15.30;79.50;;;;;;4992631;28;20054;-91
2021/08/03 04:19:32;;;;;;;10.48;6.97;;;15.30;79.50;;;;;;4993280;28;20057;-88
2021/08/03 04:21:59;;;;;;;9.75;5.93;;;15.20;79.50;;;;;;4997394;28;20489;-87
2021/08/03 04:24:26;;;;;;;13.35;6.40;;;15.20;79.40;;;;;;4987552;28;20096;-87
2021/08/03 04:26:53;;;;;;;12.00;7.65;;;15.20;79.40;;;;;;4995471;28;20054;-87
2021/08/03 04:29:20;;;;;;;12.55;7.30;;;15.20;79.50;;;;;;4996187;28;20401;-87
2021/08/03 04:31:47;;;;;;;11.32;6.90;;;15.20;79.50;;;;;;4996053;28;20114;-87
2021/08/03 04:34:14;;;;;;;10.95;6.15;;;15.10;79.50;;;;;;4995564;28;20052;-87
2021/08/03 04:36:41;;;;;;;9.88;6.32;;;15.10;79.50;;;;;;5011888;28;20054;-87
2021/08/03 04:39:10;;;;;;;9.80;6.72;;;15.10;79.50;;;;;;4996292;28;20046;-87
2021/08/03 04:41:39;;;;;;;9.35;6.50;;;15.10;79.50;;;;;;4996608;28;20054;-87
2021/08/03 04:44:06;;;;;;;13.18;7.70;;;15.10;79.50;;;;;;4996453;28;20058;-87
2021/08/03 04:46:33;;;;;;;11.05;6.72;;;15.10;79.60;;;;;;4981606;28;20062;-88
2021/08/03 04:49:00;;;;;;;10.95;5.45;;;15.00;79.50;;;;;;4994192;28;20109;-87
2021/08/03 04:51:27;;;;;;;12.75;7.32;;;15.00;79.60;;;;;;4996799;28;20054;-87
2021/08/03 04:53:54;;;;;;;12.40;7.75;;;15.00;79.60;;;;;;4996051;28;20055;-87
2021/08/03 04:56:21;;;;;;;11.88;7.40;;;15.00;79.60;;;;;;4995339;28;20048;-88
2021/08/03 04:58:48;;;;;;;11.70;8.23;;;14.90;79.60;;;;;;4979984;28;20509;-87
2021/08/03 05:01:15;;;;;;;16.63;8.82;;;15.00;79.60;;;;;;4996466;28;20560;-88
2021/08/03 05:03:42;;;;;;;19.60;7.63;;;14.90;79.70;;;;;;4988325;28;20655;-87
2021/08/03 05:06:09;;;;;;;16.73;7.22;;;14.90;79.70;;;;;;4987843;28;20452;-87
2021/08/03 05:08:36;;;;;;;10.52;6.95;;;14.90;79.80;;;;;;4996466;28;20054;-87
2021/08/03 05:11:03;;;;;;;13.18;7.68;;;14.90;79.90;;;;;;4995167;28;20095;-87
2021/08/03 05:13:30;;;;;;;15.02;8.70;;;14.90;80.00;;;;;;4995566;28;20050;-87
2021/08/03 05:15:57;;;;;;;14.45;7.85;;;14.90;80.20;;;;;;5011409;28;20069;-87
2021/08/03 05:18:24;;;;;;;10.90;7.38;;;14.90;80.30;;;;;;5010885;28;20053;-87
2021/08/03 05:20:51;;;;;;;12.93;7.75;;;14.90;80.40;;;;;;5011317;28;20118;-87
2021/08/03 05:23:19;;;;;;;19.30;8.85;;;14.90;80.50;;;;;;5011237;28;20050;-87
2021/08/03 05:25:46;;;;;;;12.45;7.57;;;14.90;80.50;;;;;;4996192;28;20120;-88
2021/08/03 05:28:13;;;;;;;12.57;6.43;;;14.90;80.60;;;;;;4994685;28;20419;-88
2021/08/03 05:30:40;;;;;;;9.88;7.28;;;14.90;80.60;;;;;;5003282;28;20058;-88
2021/08/03 05:33:07;;;;;;;15.10;7.85;;;14.90;80.60;;;;;;4986259;28;20397;-89
2021/08/03 05:35:36;;;;;;;10.80;7.45;;;15.00;80.60;;;;;;4995471;28;20054;-87
2021/08/03 05:38:05;;;;;;;14.73;8.07;;;14.90;80.70;;;;;;5011038;28;20058;-88
2021/08/03 05:40:32;;;;;;;15.85;8.38;;;14.90;80.70;;;;;;4994945;28;20055;-87
2021/08/03 05:42:59;;;;;;;11.60;7.80;;;14.90;80.80;;;;;;4995235;28;20050;-87
2021/08/03 05:45:27;;;;;;;15.50;8.45;;;15.00;80.80;;;;;;5010543;28;20055;-88
2021/08/03 05:47:54;;;;;;;12.18;7.40;;;15.00;80.80;;;;;;4995763;28;20126;-88
2021/08/03 05:50:21;;;;;;;13.38;8.55;;;15.00;80.80;;;;;;4994403;28;20047;-88
2021/08/03 05:52:48;;;;;;;11.32;7.50;;;15.00;80.80;;;;;;4992749;28;20460;-88
2021/08/03 05:55:15;;;;;;;11.38;8.05;;;15.00;80.80;;;;;;4994816;28;20100;-87
2021/08/03 05:57:42;;;;;;;11.05;8.02;;;15.00;80.80;;;;;;4994132;28;20050;-88
2021/08/03 06:00:10;;;;;;;15.10;7.60;;;15.00;80.80;;;;;;5011097;28;20054;-88
2021/08/03 06:02:36;;;;;;;13.00;8.55;;;15.00;80.80;;;;;;5011158;28;20043;-87
2021/08/03 06:05:05;;;;;;;14.80;9.30;;;15.00;80.80;;;;;;4990998;28;20394;-88
2021/08/03 06:07:40;;;;;;;14.05;8.00;;;15.00;80.80;;;;;;4976147;28;20460;-88
2021/08/03 06:10:12;;;;;;;15.50;9.77;;;15.10;81.00;;;;;;4990491;28;20512;-88
2021/08/03 06:12:43;;;;;;;13.35;9.52;;;15.10;81.00;;;;;;5001725;28;20062;-87
2021/08/03 06:15:13;;;;;;;16.30;9.25;;;15.10;81.10;;;;;;4986180;28;20050;-89
2021/08/03 06:17:49;;;;;;;14.15;8.48;;;15.10;81.10;;;;;;5010256;28;20053;-88
2021/08/03 06:20:16;;;;;;;19.90;8.82;;;15.10;81.20;;;;;;4980133;28;20108;-89
2021/08/03 06:22:43;;;;;;;15.25;8.13;;;15.10;81.20;;;;;;4994713;28;20042;-88
2021/08/03 06:25:13;;;;;;;15.85;9.13;;;15.20;81.20;;;;;;4980846;28;20121;-92
2021/08/03 06:27:42;;;;;;;12.23;8.77;;;15.20;81.20;;;;;;4990962;28;20042;-90
2021/08/03 06:30:10;;;;;;;11.52;8.75;;;15.20;81.20;;;;;;4990808;28;20046;-93
2021/08/03 06:32:41;;;;;;;16.58;9.23;;;15.20;81.20;;;;;;4982855;28;20411;-90
2021/08/03 06:35:10;;;;;;;13.80;9.57;;;15.20;81.20;;;;;;4979266;28;20085;-91
2021/08/03 06:37:37;;;;;;;14.25;7.85;;;15.20;81.30;;;;;;4990917;28;20104;-91
2021/08/03 06:40:05;;;;;;;14.52;8.63;;;15.30;81.20;;;;;;4982730;28;20409;-91
2021/08/03 06:42:46;;;;;;;13.40;9.05;;;15.30;81.10;;;;;;4982076;28;20070;-91
2021/08/03 06:45:24;;;;;;;14.40;8.07;;;15.30;81.20;;;;;;4987146;28;20054;-91
2021/08/03 06:48:11;;;;;;;19.33;10.43;;;15.40;81.30;;;;;;5009114;28;20042;-91
2021/08/03 06:50:48;;;;;;;12.60;9.18;;;15.40;81.40;;;;;;4994154;28;20137;-91
2021/08/03 06:53:18;;;;;;;12.60;8.65;;;15.40;81.40;;;;;;4979589;28;20092;-90
2021/08/03 06:55:47;;;;;;;16.30;7.20;;;15.40;81.50;;;;;;4994382;28;20054;-90
2021/08/03 06:58:27;;;;;;;13.68;8.57;;;15.40;81.50;;;;;;4980985;28;20520;-89
2021/08/03 07:00:58;;;;;;;15.57;9.18;;;15.40;81.50;;;;;;4992146;28;20042;-88
2021/08/03 07:03:29;;;;;;;12.32;8.00;;;15.40;81.40;;;;;;4987813;28;20078;-89
2021/08/03 07:05:57;;;;;;;21.98;10.38;;;15.50;81.40;;;;;;4984384;28;20141;-91
2021/08/03 07:08:25;;;;;;;16.40;11.50;;;15.50;81.30;;;;;;4993568;28;20044;-90
2021/08/03 07:10:53;;;;;;;19.13;11.73;;;15.50;81.30;;;;;;4993331;28;20050;-92
2021/08/03 07:13:20;;;;;;;19.98;14.38;;;15.60;81.30;;;;;;5003153;28;20410;-92
2021/08/03 07:15:47;;;;;;;24.55;17.17;;;15.50;81.30;;;;;;4993706;28;20050;-91
2021/08/03 07:18:20;;;;;;;20.30;15.13;;;15.50;81.30;;;;;;4993526;28;20038;-91
2021/08/03 07:20:49;;;;;;;19.70;16.05;;;15.50;81.40;;;;;;4993463;28;20109;-90
2021/08/03 07:23:19;;;;;;;20.70;14.70;;;15.60;81.50;;;;;;4993664;28;20046;-91
2021/08/03 07:25:50;;;;;;;23.88;15.43;;;15.60;81.50;;;;;;4992349;28;20054;-90
2021/08/03 07:28:19;;;;;;;19.65;15.30;;;15.70;81.60;;;;;;4993791;28;20058;-91
2021/08/03 07:30:46;;;;;;;23.10;16.27;;;15.70;81.40;;;;;;4993432;28;20058;-90
2021/08/03 07:33:15;;;;;;;19.42;15.57;;;15.70;81.30;;;;;;4992280;28;20046;-91
2021/08/03 07:35:43;;;;;;;24.65;17.30;;;15.70;81.20;;;;;;4993157;28;20056;-90
2021/08/03 07:38:11;;;;;;;23.90;16.65;;;15.80;81.20;;;;;;4992320;28;20057;-92
2021/08/03 07:40:39;;;;;;;20.85;14.23;;;15.80;81.20;;;;;;4977787;28;20135;-91
2021/08/03 07:43:06;;;;;;;21.58;17.50;;;15.80;81.10;;;;;;4992189;28;20662;-89
2021/08/03 07:45:35;;;;;;;20.65;16.90;;;15.80;81.10;;;;;;4991414;28;20050;-88
2021/08/03 07:48:03;;;;;;;18.15;13.55;;;15.80;81.00;;;;;;4991532;28;20057;-89
2021/08/03 07:50:30;;;;;;;21.35;17.13;;;15.90;81.00;;;;;;4993124;28;20054;-88
2021/08/03 07:52:58;;;;;;;20.20;15.32;;;15.90;81.00;;;;;;4991098;28;20113;-90
2021/08/03 07:55:25;;;;;;;16.60;14.57;;;15.90;80.90;;;;;;4992688;28;20050;-88
2021/08/03 07:57:52;;;;;;;25.00;17.83;;;15.90;80.80;;;;;;4989501;28;20633;-89
2021/08/03 08:00:19;;;;;;;22.40;17.30;;;15.90;80.80;;;;;;4999958;28;20459;-88
2021/08/03 08:02:46;;;;;;;21.33;17.35;;;15.90;80.80;;;;;;4989453;28;20053;-88
2021/08/03 08:05:14;;;;;;;21.52;16.00;;;15.90;80.80;;;;;;4993142;28;20054;-88
2021/08/03 08:07:41;;;;;;;19.75;14.93;;;15.90;80.70;;;;;;4990830;28;20128;-88
2021/08/03 08:10:09;;;;;;;19.58;13.95;;;15.90;80.60;;;;;;4981204;28;20055;-89
2021/08/03 08:12:36;;;;;;;18.58;12.60;;;15.90;80.50;;;;;;4987738;28;20101;-89
2021/08/03 08:15:04;;;;;;;19.67;13.95;;;15.90;80.60;;;;;;4990919;28;20050;-89
2021/08/03 08:17:31;;;;;;;20.95;13.90;;;15.90;80.60;;;;;;4992874;28;20054;-89
2021/08/03 08:19:58;;;;;;;25.33;15.68;;;16.00;80.60;;;;;;4992438;28;20062;-89
2021/08/03 08:22:25;;;;;;;25.98;16.27;;;16.00;80.50;;;;;;4992462;28;20050;-90
2021/08/03 08:24:52;;;;;;;19.23;14.90;;;16.00;80.40;;;;;;4992493;28;20057;-90
2021/08/03 08:27:19;;;;;;;19.42;15.43;;;16.10;80.30;;;;;;4992709;28;20050;-88
2021/08/03 08:29:46;;;;;;;17.63;12.45;;;16.10;80.40;;;;;;4992319;28;20049;-89
2021/08/03 08:32:13;;;;;;;28.60;15.50;;;16.20;80.40;;;;;;4991315;28;20575;-90
2021/08/03 08:34:40;;;;;;;18.58;15.85;;;16.20;80.30;;;;;;4992633;28;20053;-88
2021/08/03 08:37:06;;;;;;;18.88;16.85;;;16.30;80.20;;;;;;4980387;28;21182;-89
2021/08/03 08:39:33;;;;;;;23.17;15.02;;;16.30;80.00;;;;;;4988087;28;20050;-88
2021/08/03 08:42:00;;;;;;;19.08;14.65;;;16.30;79.90;;;;;;4992317;28;20046;-89
2021/08/03 08:44:27;;;;;;;18.77;13.88;;;16.40;79.60;;;;;;4991976;28;20046;-89
2021/08/03 08:46:58;;;;;;;20.85;16.88;;;16.40;79.40;;;;;;4976331;28;20139;-89
2021/08/03 08:49:26;;;;;;;24.98;17.33;;;16.40;79.40;;;;;;4991825;28;20057;-88
2021/08/03 08:51:55;;;;;;;23.80;17.58;;;16.50;79.40;;;;;;4991647;28;20058;-88
2021/08/03 08:54:21;;;;;;;25.38;19.70;;;16.60;79.30;;;;;;4991676;28;20046;-89
2021/08/03 08:56:48;;;;;;;19.50;17.02;;;16.70;79.50;;;;;;4990888;28;20089;-90
2021/08/03 08:59:15;;;;;;;23.27;16.10;;;16.70;79.60;;;;;;4977293;28;20047;-88
2021/08/03 09:01:42;;;;;;;18.88;16.88;;;16.80;79.60;;;;;;4976259;28;20051;-88
2021/08/03 09:04:09;;;;;;;18.73;16.05;;;16.90;79.50;;;;;;4980329;28;20058;-88
2021/08/03 09:06:38;;;;;;;20.33;16.50;;;16.90;79.20;;;;;;4986454;28;20050;-88
2021/08/03 09:09:16;;;;;;;21.20;16.65;;;16.90;79.00;;;;;;4991673;28;20046;-87
2021/08/03 09:11:47;;;;;;;22.08;15.07;;;17.00;78.90;;;;;;4992414;28;20097;-88
2021/08/03 09:14:37;;;;;;;20.55;16.15;;;17.10;78.70;;;;;;4995604;28;20050;-87
2021/08/03 09:17:05;;;;;;;20.88;16.38;;;17.20;78.30;;;;;;4996183;28;20054;-92
2021/08/03 09:19:42;;;;;;;19.63;15.80;;;17.20;78.20;;;;;;4994531;28;20046;-88
2021/08/03 09:22:11;;;;;;;23.42;16.95;;;17.30;78.10;;;;;;4995302;28;20097;-88
2021/08/03 09:24:39;;;;;;;20.63;15.70;;;17.40;78.10;;;;;;4995404;28;20428;-87
2021/08/03 09:27:06;;;;;;;17.85;14.27;;;17.40;78.00;;;;;;4995335;28;20058;-86
2021/08/03 09:29:46;;;;;;;24.98;15.77;;;17.40;78.00;;;;;;4995244;28;20038;-86
2021/08/03 09:32:13;;;;;;;15.35;11.45;;;17.50;78.10;;;;;;4979807;28;20050;-87
2021/08/03 09:34:40;;;;;;;21.08;15.32;;;17.60;78.10;;;;;;4979430;28;20051;-86
2021/08/03 09:37:07;;;;;;;16.25;13.57;;;17.60;77.90;;;;;;4994745;28;20108;-87
2021/08/03 09:39:41;;;;;;;17.20;15.00;;;17.70;77.70;;;;;;4988241;28;20050;-87
2021/08/03 09:42:14;;;;;;;19.42;16.23;;;17.80;77.60;;;;;;4987949;28;20089;-86
2021/08/03 09:44:47;;;;;;;20.90;17.23;;;17.80;77.40;;;;;;4994746;28;20101;-87
2021/08/03 09:47:15;;;;;;;18.77;14.80;;;17.90;77.10;;;;;;4979926;28;20065;-88
2021/08/03 09:49:48;;;;;;;17.27;13.68;;;17.90;77.00;;;;;;4994208;28;20050;-88
2021/08/03 09:52:20;;;;;;;15.73;13.47;;;17.90;76.70;;;;;;4995512;28;20046;-87
2021/08/03 09:54:48;;;;;;;23.55;13.10;;;18.00;76.50;;;;;;4995107;28;20042;-88
2021/08/03 09:57:33;;;;;;;16.15;14.23;;;18.10;76.50;;;;;;4994170;28;20459;-86
2021/08/03 10:00:00;;;;;;;20.27;13.65;;;18.20;76.50;;;;;;4995235;28;20058;-87
2021/08/03 10:02:28;;;;;;;17.45;14.57;;;18.30;76.40;;;;;;4994134;28;20066;-86
2021/08/03 10:04:56;;;;;;;16.90;15.10;;;18.30;76.30;;;;;;4994609;28;20108;-87
2021/08/03 10:07:23;;;;;;;15.35;13.60;;;18.40;76.30;;;;;;4995507;28;20061;-86
2021/08/03 10:09:51;;;;;;;20.35;13.82;;;18.40;76.10;;;;;;4995457;28;20050;-86
2021/08/03 10:12:18;;;;;;;20.17;13.23;;;18.50;75.80;;;;;;4993973;28;20049;-88
2021/08/03 10:14:45;;;;;;;16.65;11.88;;;18.60;75.60;;;;;;4994556;28;20058;-87
2021/08/03 10:17:14;;;;;;;15.75;12.20;;;18.60;75.40;;;;;;4994916;28;20074;-87
2021/08/03 10:19:42;;;;;;;14.98;11.25;;;18.70;75.20;;;;;;4994853;28;20412;-87
2021/08/03 10:22:18;;;;;;;12.60;11.02;;;18.70;75.00;;;;;;4995032;28;20492;-88
2021/08/03 10:25:02;;;;;;;18.38;12.15;;;18.80;74.70;;;;;;4993932;28;20046;-87
2021/08/03 10:27:47;;;;;;;16.08;13.00;;;18.80;74.70;;;;;;4993384;28;20472;-87
2021/08/03 10:30:29;;;;;;;12.82;11.32;;;18.80;74.60;;;;;;4994701;28;20042;-87
2021/08/03 10:33:05;;;;;;;15.98;11.93;;;18.80;74.60;;;;;;4994638;28;20109;-87
2021/08/03 10:35:43;;;;;;;16.70;11.15;;;18.80;74.70;;;;;;4994282;28;20050;-87
2021/08/03 10:38:12;;;;;;;17.50;12.60;;;18.80;74.80;;;;;;4975708;28;20125;-87
2021/08/03 10:40:49;;;;;;;13.63;10.27;;;18.80;74.90;;;;;;4975478;28;20047;-86
2021/08/03 10:43:22;;;;;;;13.80;10.95;;;18.90;75.10;;;;;;4989934;28;20046;-87
2021/08/03 10:46:08;;;;;;;13.65;9.52;;;18.90;75.10;;;;;;4990390;28;20440;-86
2021/08/03 10:48:39;;;;;;;13.05;9.70;;;19.00;75.20;;;;;;4988661;28;20054;-87
2021/08/03 10:51:38;;;;;;;12.07;8.82;;;19.10;75.20;;;;;;5009703;28;20059;-87
2021/08/03 10:54:12;;;;;;;10.60;8.70;;;19.20;75.30;;;;;;4972886;28;20050;-88
2021/08/03 10:56:59;;;;;;;11.70;8.73;;;19.30;75.10;;;;;;4956735;28;20066;-88
2021/08/03 10:59:35;;;;;;;13.90;9.80;;;19.30;74.40;;;;;;4972726;28;20457;-89
2021/08/03 11:02:07;;;;;;;14.25;10.68;;;19.40;74.10;;;;;;4972972;28;20488;-85
2021/08/03 11:04:43;;;;;;;11.07;9.38;;;19.40;73.90;;;;;;4957080;28;20047;-86
2021/08/03 11:07:32;;;;;;;12.25;9.73;;;19.50;73.90;;;;;;4954093;28;20066;-89
2021/08/03 11:10:22;;;;;;;10.68;8.32;;;19.50;73.50;;;;;;4972096;28;20047;-89
2021/08/03 11:12:51;;;;;;;10.30;8.98;;;19.60;73.30;;;;;;4956716;28;20080;-89
2021/08/03 11:15:21;;;;;;;13.48;8.60;;;19.60;72.70;;;;;;4961174;28;20138;-88
2021/08/03 11:18:01;;;;;;;10.18;8.45;;;19.60;72.20;;;;;;4970309;28;20501;-85
2021/08/03 11:20:37;;;;;;;16.58;7.22;;;19.70;71.90;;;;;;4971410;28;20162;-86
2021/08/03 11:23:07;;;;;;;14.13;8.35;;;19.70;71.80;;;;;;4972353;28;20163;-87
2021/08/03 11:25:34;;;;;;;11.57;8.88;;;19.70;71.50;;;;;;4956203;28;20051;-87
2021/08/03 11:28:18;;;;;;;11.93;9.35;;;19.70;71.30;;;;;;4972009;28;20512;-90
2021/08/03 11:30:47;;;;;;;;;;;19.80;71.50;;;;;;4977304;28;20461;-87
2021/08/03 11:33:16;;;;;;;11.32;7.90;;;19.90;71.80;;;;;;4993131;28;19933;-86
2021/08/03 11:35:43;;;;;;;11.27;7.43;;;19.90;71.80;;;;;;4992126;28;20101;-86
2021/08/03 11:38:12;;;;;;;10.32;6.65;;;20.00;71.70;;;;;;4992733;28;20105;-85
2021/08/03 11:40:41;;;;;;;9.25;6.40;;;20.00;71.70;;;;;;4993016;28;20050;-86
2021/08/03 11:43:09;;;;;;;7.95;5.63;;;20.20;71.70;;;;;;4991099;28;20500;-86
2021/08/03 11:45:39;;;;;;;12.77;6.00;;;20.30;71.50;;;;;;4991820;28;20046;-86
2021/08/03 11:48:18;;;;;;;13.52;6.20;;;20.40;70.90;;;;;;5007619;28;20069;-87
2021/08/03 11:50:45;;;;;;;7.03;5.70;;;20.60;70.60;;;;;;4992727;28;20046;-86
2021/08/03 11:53:17;;;;;;;9.05;5.40;;;20.80;71.10;;;;;;4992649;28;20467;-86
2021/08/03 11:55:46;;;;;;;6.55;4.38;;;21.00;69.80;;;;;;4992660;28;20050;-86
2021/08/03 11:58:20;;;;;;;6.50;4.60;;;21.30;69.00;;;;;;4980007;28;20043;-85
2021/08/03 12:00:55;;;;;;;7.15;5.53;;;21.50;68.60;;;;;;4981261;28;20062;-85
2021/08/03 12:03:33;;;;;;;6.07;4.60;;;21.70;68.20;;;;;;4987116;28;20046;-85
2021/08/03 12:06:02;;;;;;;6.20;4.28;;;21.90;67.30;;;;;;4992745;28;20094;-86
2021/08/03 12:08:34;;;;;;;6.50;4.55;;;22.00;66.80;;;;;;4992830;28;20046;-86
2021/08/03 12:11:02;;;;;;;6.43;4.40;;;22.20;66.60;;;;;;4992468;28;20058;-86
2021/08/03 12:13:31;;;;;;;6.35;4.00;;;22.30;66.50;;;;;;4992819;28;20046;-86
2021/08/03 12:15:59;;;;;;;7.57;4.20;;;22.40;66.40;;;;;;4991225;28;20104;-86
2021/08/03 12:18:40;;;;;;;6.25;3.63;;;22.40;66.00;;;;;;4992502;28;20046;-86
2021/08/03 12:21:08;;;;;;;6.53;3.92;;;22.40;65.50;;;;;;4989330;28;20051;-86
2021/08/03 12:23:36;;;;;;;5.68;4.10;;;22.40;65.50;;;;;;4980410;28;20431;-86
2021/08/03 12:26:19;;;;;;;8.90;3.90;;;22.40;65.30;;;;;;4992617;28;20050;-86
2021/08/03 12:28:53;;;;;;;7.43;3.95;;;22.40;65.20;;;;;;4989402;28;20563;-87
2021/08/03 12:31:41;;;;;;;6.03;3.90;;;22.40;65.10;;;;;;4986748;28;20051;-85
2021/08/03 12:34:09;;;;;;;5.30;3.28;;;22.40;64.70;;;;;;4991893;28;20050;-86
2021/08/03 12:36:42;;;;;;;6.15;3.55;;;22.40;64.80;;;;;;4992383;28;20057;-86
2021/08/03 12:39:28;;;;;;;8.48;3.60;;;22.40;65.00;;;;;;4992692;28;20496;-86
2021/08/03 12:42:31;;;;;;;6.93;3.65;;;22.30;65.20;;;;;;5007272;28;20054;-85
2021/08/03 12:45:19;;;;;;;5.88;3.28;;;22.30;65.60;;;;;;4992022;28;20046;-86
2021/08/03 12:47:57;;;;;;;5.80;2.75;;;22.20;66.00;;;;;;4994623;28;20050;-86
2021/08/03 12:50:25;;;;;;;5.47;3.38;;;22.10;66.20;;;;;;4996068;28;20047;-85
2021/08/03 12:52:54;;;;;;;6.70;4.20;;;21.90;65.70;;;;;;4980588;28;20425;-86